Time;durP1;ratioP1;P1;durP2;ratioP2;P2;SDS_P1;SDS_P2;PMS_P1;PMS_P2;Temp;Humidity;BMP_temperature;BMP_pressure;BME280_temperature;BME280_humidity;BME280_pressure;Samples;Min_cycle;Max_cycle;Signal;HPM_P1;HPM_P2
2023/07/18 00:00:17;;;;;;;7.80;5.70;;;;;;;28.02;44.27;99451.81;5051836;28;20029;-81
2023/07/18 00:02:46;;;;;;;8.90;5.78;;;;;;;28.18;44.07;99458.81;5051828;28;20021;-81
2023/07/18 00:05:12;;;;;;;9.48;5.88;;;;;;;28.24;43.23;99450.41;5051836;28;20408;-81
2023/07/18 00:07:44;;;;;;;13.25;5.70;;;;;;;28.29;43.29;99449.84;5038537;28;20034;-82
2023/07/18 00:10:10;;;;;;;9.10;5.22;;;;;;;28.36;43.42;99457.44;5030443;28;20037;-82
2023/07/18 00:12:37;;;;;;;7.85;5.50;;;;;;;28.10;43.41;99452.41;5030555;28;20036;-82
2023/07/18 00:15:09;;;;;;;7.57;5.40;;;;;;;28.18;43.60;99444.44;5030471;28;20079;-82
2023/07/18 00:17:36;;;;;;;6.13;5.30;;;;;;;28.39;43.28;99447.88;5029260;28;20455;-82
2023/07/18 00:20:18;;;;;;;11.55;6.63;;;;;;;28.36;42.92;99449.63;5014122;28;20191;-82
2023/07/18 00:22:48;;;;;;;10.90;6.30;;;;;;;27.73;44.32;99451.84;5030345;28;20415;-82
2023/07/18 00:25:16;;;;;;;;;;;;;;;26.89;46.81;99456.09;5030881;28;20037;-82
2023/07/18 00:27:51;;;;;;;6.60;5.65;;;;;;;26.53;48.13;99459.81;5031460;28;19912;-81
2023/07/18 00:30:17;;;;;;;9.63;5.97;;;;;;;26.67;48.14;99448.03;5030129;28;20029;-82
2023/07/18 00:32:46;;;;;;;14.85;6.97;;;;;;;26.17;50.00;99442.16;5031464;28;20462;-82
2023/07/18 00:35:15;;;;;;;17.30;6.65;;;;;;;25.87;51.44;99451.81;5030151;28;20553;-82
2023/07/18 00:37:41;;;;;;;11.80;6.97;;;;;;;25.85;51.69;99440.81;5029971;28;20063;-81
2023/07/18 00:40:10;;;;;;;22.63;7.82;;;;;;;26.03;51.22;99446.16;5030145;28;20030;-82
2023/07/18 00:42:40;;;;;;;7.43;6.68;;;;;;;25.92;51.33;99437.78;5030915;28;20385;-82
2023/07/18 00:45:07;;;;;;;8.32;7.18;;;;;;;25.51;52.48;99430.44;5031144;28;20520;-82
2023/07/18 00:47:40;;;;;;;7.55;6.65;;;;;;;25.41;53.05;99440.00;5029884;28;20091;-82
2023/07/18 00:50:08;;;;;;;11.35;6.57;;;;;;;24.92;54.03;99447.84;5040940;28;20465;-81
2023/07/18 00:52:40;;;;;;;8.02;7.18;;;;;;;25.19;53.24;99444.09;5049772;28;20028;-82
2023/07/18 00:55:10;;;;;;;10.20;7.10;;;;;;;25.20;53.57;99439.97;5045586;28;20032;-82
2023/07/18 00:57:38;;;;;;;10.80;6.45;;;;;;;24.93;54.89;99428.59;5046402;28;20025;-82
2023/07/18 01:00:14;;;;;;;13.23;8.57;;;;;;;24.77;55.38;99421.53;5029768;28;20033;-82
2023/07/18 01:02:41;;;;;;;9.65;7.43;;;;;;;24.23;57.61;99425.97;5029788;28;20021;-82
2023/07/18 01:05:14;;;;;;;8.38;7.57;;;;;;;24.40;57.34;99423.31;5029309;28;20104;-82
2023/07/18 01:07:39;;;;;;;11.23;6.32;;;;;;;24.83;56.33;99421.00;5029719;28;20033;-82
2023/07/18 01:10:25;;;;;;;8.10;6.10;;;;;;;25.17;55.03;99420.84;5031051;28;20033;-82
2023/07/18 01:12:52;;;;;;;9.40;6.35;;;;;;;25.42;54.12;99415.88;5030971;28;20096;-82
2023/07/18 01:15:21;;;;;;;11.45;7.45;;;;;;;25.72;53.32;99416.94;5029153;28;20025;-82
2023/07/18 01:17:47;;;;;;;11.27;6.28;;;;;;;25.54;52.87;99400.13;5030375;28;20025;-82
2023/07/18 01:20:18;;;;;;;12.60;7.15;;;;;;;25.76;52.98;99407.03;5031043;28;20040;-82
2023/07/18 01:22:53;;;;;;;18.00;7.35;;;;;;;26.05;52.04;99405.59;5030572;28;20498;-82
2023/07/18 01:25:19;;;;;;;6.70;6.03;;;;;;;26.04;51.58;99393.31;5030937;28;20507;-82
2023/07/18 01:27:49;;;;;;;8.95;6.10;;;;;;;26.21;50.74;99385.59;5029450;28;20030;-82
2023/07/18 01:30:17;;;;;;;7.97;6.28;;;;;;;26.37;50.86;99391.78;5030930;28;20488;-82
2023/07/18 01:32:44;;;;;;;11.32;7.30;;;;;;;25.65;52.48;99392.94;5029837;28;20056;-82
2023/07/18 01:35:10;;;;;;;13.27;7.15;;;;;;;25.12;54.14;99380.47;5029872;28;20037;-82
2023/07/18 01:37:37;;;;;;;7.97;5.70;;;;;;;25.72;52.80;99385.44;5029368;28;20033;-82
2023/07/18 01:40:13;;;;;;;8.80;6.75;;;;;;;25.90;52.81;99388.72;5030280;28;20045;-82
2023/07/18 01:42:40;;;;;;;7.95;6.18;;;;;;;26.09;51.43;99377.69;5029332;28;20022;-82
2023/07/18 01:45:06;;;;;;;10.35;6.63;;;;;;;26.08;51.29;99391.19;5045950;28;20543;-82
2023/07/18 01:47:32;;;;;;;10.50;8.20;;;;;;;26.15;50.92;99393.06;5030595;28;20053;-82
2023/07/18 01:50:03;;;;;;;9.65;6.63;;;;;;;26.33;50.18;99384.09;5029931;28;20060;-82
2023/07/18 01:52:29;;;;;;;11.00;7.57;;;;;;;26.08;51.35;99382.59;5029355;28;20507;-82
2023/07/18 01:55:02;;;;;;;8.60;7.80;;;;;;;25.92;52.22;99391.16;5028940;28;20025;-82
2023/07/18 01:57:41;;;;;;;14.13;9.05;;;;;;;25.60;53.65;99387.72;5030597;28;20096;-82
2023/07/18 02:00:11;;;;;;;13.50;8.07;;;;;;;25.57;53.64;99384.94;5030633;28;20477;-83
2023/07/18 02:02:41;;;;;;;8.60;7.80;;;;;;;24.80;56.26;99391.25;5030597;28;20025;-82
2023/07/18 02:05:08;;;;;;;16.95;9.32;;;;;;;24.15;58.36;99377.94;5030627;28;20022;-82
2023/07/18 02:07:33;;;;;;;11.40;8.40;;;;;;;23.99;59.39;99376.53;5030469;28;20037;-82
2023/07/18 02:10:00;;;;;;;12.30;9.80;;;;;;;24.23;58.67;99385.97;5031553;28;20025;-82
2023/07/18 02:12:26;;;;;;;13.27;9.02;;;;;;;24.37;58.07;99381.28;5033227;28;20029;-82
2023/07/18 02:14:52;;;;;;;12.30;9.02;;;;;;;24.31;58.03;99388.75;5033094;28;20495;-82
2023/07/18 02:17:17;;;;;;;14.18;10.18;;;;;;;23.81;59.83;99377.56;5032607;28;20037;-82
2023/07/18 02:19:43;;;;;;;13.35;9.85;;;;;;;23.20;61.75;99369.72;5033957;28;20037;-82
2023/07/18 02:22:08;;;;;;;15.43;9.68;;;;;;;23.19;61.42;99388.09;5033796;28;20484;-82
2023/07/18 02:24:34;;;;;;;13.68;9.02;;;;;;;23.25;60.42;99390.03;5032574;28;20107;-82
2023/07/18 02:27:00;;;;;;;8.65;7.70;;;;;;;23.56;59.18;99404.38;5032278;28;20108;-82
2023/07/18 02:29:26;;;;;;;13.07;8.00;;;;;;;23.91;57.95;99390.09;5031869;28;20033;-82
2023/07/18 02:31:51;;;;;;;10.65;8.65;;;;;;;23.41;59.41;99380.13;5033095;28;20397;-82
2023/07/18 02:34:17;;;;;;;36.83;9.27;;;;;;;23.22;60.16;99375.81;5032274;28;20029;-82
2023/07/18 02:36:43;;;;;;;15.65;8.32;;;;;;;22.94;61.81;99389.16;5033609;28;20508;-82
2023/07/18 02:39:10;;;;;;;13.07;9.02;;;;;;;22.85;63.07;99381.88;5033453;28;20041;-82
2023/07/18 02:41:36;;;;;;;12.20;8.40;;;;;;;22.92;62.59;99391.59;5039851;28;20107;-77
2023/07/18 02:44:03;;;;;;;15.35;8.90;;;;;;;23.28;61.39;99397.78;5037908;28;20118;-77
2023/07/18 02:46:28;;;;;;;17.00;8.95;;;;;;;22.76;64.56;99395.03;5033238;28;20038;-78
2023/07/18 02:48:54;;;;;;;10.75;8.65;;;;;;;22.82;64.89;99396.16;5035977;28;20066;-80
2023/07/18 02:51:19;;;;;;;12.50;8.43;;;;;;;23.18;64.13;99395.81;5050690;28;20029;-78
2023/07/18 02:53:45;;;;;;;12.98;9.02;;;;;;;23.54;62.96;99409.72;5052188;28;20021;-82
2023/07/18 02:56:10;;;;;;;31.05;10.68;;;;;;;23.76;60.51;99405.78;5053273;28;20017;-80
2023/07/18 02:58:36;;;;;;;17.80;9.65;;;;;;;23.85;60.32;99400.38;5051963;28;20020;-81
2023/07/18 03:01:03;;;;;;;15.25;11.02;;;;;;;23.39;61.69;99396.84;5052724;28;20741;-81
2023/07/18 03:03:29;;;;;;;20.38;10.07;;;;;;;22.94;63.66;99398.50;5043146;28;20026;-82
2023/07/18 03:05:55;;;;;;;17.58;10.13;;;;;;;23.09;63.11;99406.91;5033100;28;20028;-81
2023/07/18 03:08:20;;;;;;;16.50;10.15;;;;;;;22.70;64.92;99409.72;5033041;28;20025;-82
2023/07/18 03:10:47;;;;;;;14.90;10.30;;;;;;;22.49;65.50;99419.25;5032982;28;20079;-81
2023/07/18 03:13:12;;;;;;;18.58;10.75;;;;;;;22.43;65.76;99401.75;5032935;28;20523;-82
2023/07/18 03:15:39;;;;;;;11.70;10.35;;;;;;;22.55;65.52;99419.59;5030687;28;20026;-81
2023/07/18 03:18:06;;;;;;;22.38;11.50;;;;;;;22.41;65.93;99427.00;5031499;28;20021;-82
2023/07/18 03:20:32;;;;;;;18.40;11.65;;;;;;;22.39;66.17;99423.75;5032846;28;20025;-81
2023/07/18 03:22:57;;;;;;;16.50;11.10;;;;;;;21.82;67.95;99410.66;5031572;28;20111;-81
2023/07/18 03:25:23;;;;;;;18.90;11.85;;;;;;;22.10;66.96;99414.59;5032196;28;20025;-81
2023/07/18 03:27:49;;;;;;;13.63;11.05;;;;;;;22.01;67.46;99420.72;5050573;28;20025;-81
2023/07/18 03:30:16;;;;;;;21.48;11.93;;;;;;;21.79;68.29;99432.22;5052453;28;20029;-81
2023/07/18 03:32:42;;;;;;;15.98;10.82;;;;;;;21.83;68.49;99440.72;5051252;28;20104;-81
2023/07/18 03:35:09;;;;;;;15.93;11.45;;;;;;;21.93;67.81;99439.88;5050994;28;20491;-81
2023/07/18 03:37:35;;;;;;;13.05;11.75;;;;;;;21.93;67.73;99434.19;5049795;28;20048;-81
2023/07/18 03:40:02;;;;;;;20.60;12.07;;;;;;;22.14;67.36;99430.44;5049415;28;20082;-81
2023/07/18 03:42:28;;;;;;;15.80;11.50;;;;;;;22.16;67.06;99439.38;5051034;28;20082;-81
2023/07/18 03:44:53;;;;;;;17.52;11.85;;;;;;;22.01;67.65;99441.47;5052108;28;20581;-81
2023/07/18 03:47:19;;;;;;;15.95;10.80;;;;;;;22.11;67.19;99425.53;5046080;28;20022;-82
2023/07/18 03:49:45;;;;;;;27.40;12.35;;;;;;;22.29;67.11;99438.88;5052103;28;20090;-81
2023/07/18 03:52:10;;;;;;;21.35;13.23;;;;;;;22.51;66.73;99448.13;5052208;28;20503;-81
2023/07/18 03:54:35;;;;;;;25.85;13.57;;;;;;;22.28;67.37;99446.59;5051971;28;20021;-82
2023/07/18 03:57:01;;;;;;;30.38;13.02;;;;;;;22.62;66.09;99441.53;5051134;28;20025;-81
2023/07/18 03:59:27;;;;;;;29.38;12.27;;;;;;;22.71;66.07;99430.47;5031756;28;20478;-82
2023/07/18 04:01:53;;;;;;;25.08;12.40;;;;;;;22.97;65.16;99434.72;5032299;28;20049;-81
2023/07/18 04:04:19;;;;;;;21.95;14.02;;;;;;;23.03;65.27;99437.13;5030747;28;20026;-81
2023/07/18 04:06:44;;;;;;;25.40;14.48;;;;;;;23.34;63.60;99429.50;5031941;28;20033;-81
2023/07/18 04:09:10;;;;;;;40.33;14.52;;;;;;;23.08;64.92;99440.34;5031811;28;20103;-81
2023/07/18 04:11:37;;;;;;;19.63;13.73;;;;;;;22.94;65.60;99437.63;5029967;28;20029;-81
2023/07/18 04:14:03;;;;;;;26.00;15.13;;;;;;;22.83;66.04;99432.00;5043980;28;20086;-81
2023/07/18 04:16:29;;;;;;;24.42;14.15;;;;;;;22.82;66.54;99427.53;5050464;28;20480;-82
2023/07/18 04:18:54;;;;;;;30.00;13.07;;;;;;;22.93;66.10;99416.84;5051706;28;20033;-81
2023/07/18 04:21:20;;;;;;;18.67;14.10;;;;;;;23.03;66.15;99409.41;5051745;28;20466;-81
2023/07/18 04:23:45;;;;;;;20.38;13.05;;;;;;;23.13;66.17;99416.25;5051473;28;20025;-81
2023/07/18 04:26:12;;;;;;;17.00;12.43;;;;;;;22.96;66.52;99415.19;5035772;28;20037;-81
2023/07/18 04:28:39;;;;;;;21.38;13.38;;;;;;;23.19;66.24;99417.41;5031619;28;20476;-82
2023/07/18 04:31:06;;;;;;;20.25;12.20;;;;;;;23.25;65.60;99412.03;5031442;28;20026;-82
2023/07/18 04:33:34;;;;;;;27.55;14.07;;;;;;;23.22;65.18;99421.47;5034775;28;20062;-81
2023/07/18 04:35:59;;;;;;;18.52;13.15;;;;;;;23.38;64.93;99398.88;5051326;28;20028;-81
2023/07/18 04:38:25;;;;;;;14.68;11.45;;;;;;;23.39;64.73;99397.66;5049929;28;20500;-82
2023/07/18 04:40:50;;;;;;;18.25;12.00;;;;;;;23.58;64.66;99409.69;5047269;28;20128;-82
2023/07/18 04:43:16;;;;;;;19.73;12.32;;;;;;;23.92;63.54;99405.16;5031493;28;20029;-81
2023/07/18 04:45:44;;;;;;;22.75;12.00;;;;;;;24.02;62.97;99407.06;5030975;28;20045;-81
2023/07/18 04:48:16;;;;;;;18.02;11.02;;;;;;;24.12;62.04;99405.31;5031185;28;20037;-82
2023/07/18 04:50:43;;;;;;;19.67;13.20;;;;;;;24.09;62.67;99414.75;5031197;28;20021;-81
2023/07/18 04:53:09;;;;;;;21.73;12.48;;;;;;;24.24;61.97;99412.50;5039253;28;20029;-82
2023/07/18 04:55:36;;;;;;;18.27;11.32;;;;;;;24.41;61.89;99416.34;5031621;28;20407;-82
2023/07/18 04:58:03;;;;;;;18.40;12.50;;;;;;;24.56;60.53;99413.25;5029915;28;20476;-82
2023/07/18 05:00:30;;;;;;;16.70;10.70;;;;;;;24.63;58.55;99407.44;5029661;28;20034;-81
2023/07/18 05:02:57;;;;;;;11.27;9.55;;;;;;;24.70;58.27;99413.03;5031123;28;20025;-81
2023/07/18 05:05:23;;;;;;;13.55;9.98;;;;;;;24.78;57.87;99414.56;5030553;28;20104;-81
2023/07/18 05:07:48;;;;;;;16.90;10.48;;;;;;;25.07;56.87;99399.75;5029850;28;20055;-82
2023/07/18 05:10:14;;;;;;;18.25;9.57;;;;;;;25.01;57.75;99386.38;5031031;28;20547;-82
2023/07/18 05:12:40;;;;;;;19.92;10.38;;;;;;;25.16;57.54;99401.22;5031223;28;20080;-82
2023/07/18 05:15:07;;;;;;;11.90;9.25;;;;;;;25.37;56.86;99403.69;5043331;28;20029;-81
2023/07/18 05:17:32;;;;;;;19.73;9.57;;;;;;;25.22;55.64;99397.44;5046101;28;20037;-81
2023/07/18 05:19:58;;;;;;;17.27;9.98;;;;;;;25.36;55.70;99404.13;5013134;28;20462;-81
2023/07/18 05:22:23;;;;;;;13.70;9.32;;;;;;;25.24;56.41;99397.78;5029708;28;20030;-81
2023/07/18 05:24:49;;;;;;;11.88;10.20;;;;;;;25.22;55.57;99394.56;5030434;28;20040;-81
2023/07/18 05:27:14;;;;;;;17.27;9.02;;;;;;;25.34;55.90;99401.72;5029686;28;20071;-81
2023/07/18 05:29:40;;;;;;;25.23;10.57;;;;;;;25.49;56.25;99410.84;5030938;28;20029;-81
2023/07/18 05:32:06;;;;;;;13.30;9.27;;;;;;;25.39;55.16;99408.97;5030888;28;20048;-81
2023/07/18 05:34:35;;;;;;;11.20;9.40;;;;;;;25.58;55.33;99413.13;5030933;28;20056;-81
2023/07/18 05:37:01;;;;;;;13.60;9.95;;;;;;;26.04;54.49;99401.94;5030759;28;20025;-81
2023/07/18 05:39:27;;;;;;;13.73;8.90;;;;;;;26.07;53.41;99408.84;5035990;28;20484;-81
2023/07/18 05:41:54;;;;;;;27.02;9.23;;;;;;;26.45;52.31;99401.84;5037419;28;20496;-81
2023/07/18 05:44:19;;;;;;;10.68;8.32;;;;;;;26.28;51.67;99392.41;5030853;28;20100;-81
2023/07/18 05:46:45;;;;;;;13.55;9.05;;;;;;;26.16;52.31;99406.16;5033630;28;20087;-81
2023/07/18 05:49:10;;;;;;;20.98;9.50;;;;;;;26.28;52.06;99395.28;5043523;28;21903;-80
2023/07/18 05:51:36;;;;;;;26.05;10.23;;;;;;;26.41;51.38;99386.78;5032707;28;20029;-82
2023/07/18 05:54:04;;;;;;;10.15;8.23;;;;;;;26.55;50.94;99382.78;5034732;28;20059;-80
2023/07/18 05:56:29;;;;;;;15.18;10.48;;;;;;;26.87;50.56;99402.06;5034541;28;20025;-80
2023/07/18 05:58:55;;;;;;;54.75;12.77;;;;;;;26.84;50.42;99384.91;5034434;28;20032;-80
2023/07/18 06:01:21;;;;;;;17.75;9.13;;;;;;;27.11;49.83;99380.94;5035918;28;20463;-77
2023/07/18 06:03:47;;;;;;;14.40;9.13;;;;;;;27.15;50.08;99379.59;5033129;28;20112;-76
2023/07/18 06:06:13;;;;;;;18.98;10.20;;;;;;;27.26;49.71;99387.91;5032810;28;20488;-77
2023/07/18 06:08:39;;;;;;;15.15;8.13;;;;;;;27.49;48.61;99383.16;5034192;28;20026;-76
2023/07/18 06:11:04;;;;;;;14.90;8.52;;;;;;;27.36;48.38;99383.13;5032691;28;20027;-76
2023/07/18 06:13:30;;;;;;;15.63;9.23;;;;;;;27.64;47.51;99385.66;5049536;28;20063;-76
2023/07/18 06:15:55;;;;;;;17.02;9.60;;;;;;;27.44;48.14;99378.78;5032631;28;20091;-76
2023/07/18 06:18:21;;;;;;;14.73;9.55;;;;;;;27.63;47.37;99375.41;5033485;28;20591;-76
2023/07/18 06:20:46;;;;;;;14.27;8.90;;;;;;;27.83;47.55;99375.25;5033335;28;20088;-75
2023/07/18 06:23:11;;;;;;;28.30;9.55;;;;;;;28.11;46.58;99364.91;5033879;28;20022;-76
2023/07/18 06:25:37;;;;;;;17.45;9.57;;;;;;;28.19;46.34;99359.81;5032477;28;20108;-76
2023/07/18 06:28:04;;;;;;;12.32;8.20;;;;;;;27.96;46.58;99364.59;5033916;28;20462;-74
2023/07/18 06:30:30;;;;;;;19.65;8.75;;;;;;;28.20;46.80;99366.34;5032435;28;20147;-74
2023/07/18 06:32:56;;;;;;;27.50;9.40;;;;;;;28.37;45.87;99372.78;5033680;28;20484;-74
2023/07/18 06:35:22;;;;;;;17.27;8.82;;;;;;;28.56;44.55;99360.22;5032442;28;20250;-75
2023/07/18 06:37:47;;;;;;;10.60;8.23;;;;;;;28.50;43.77;99359.19;5032210;28;20075;-76
2023/07/18 06:40:13;;;;;;;12.77;9.00;;;;;;;28.62;43.69;99356.75;5031639;28;20084;-76
2023/07/18 06:42:39;;;;;;;11.82;8.30;;;;;;;28.55;43.60;99364.38;5033466;28;20083;-76
2023/07/18 06:45:06;;;;;;;11.95;8.80;;;;;;;28.51;43.74;99351.38;5032344;28;20892;-76
2023/07/18 06:47:32;;;;;;;13.57;9.10;;;;;;;28.85;43.13;99353.50;5033361;28;20424;-76
2023/07/18 06:49:57;;;;;;;17.20;8.75;;;;;;;29.17;43.04;99353.63;5032167;28;20034;-76
2023/07/18 06:52:23;;;;;;;16.60;8.70;;;;;;;29.44;42.55;99345.72;5033316;28;20032;-76
2023/07/18 06:54:48;;;;;;;16.27;9.60;;;;;;;29.44;42.09;99355.13;5032791;28;20029;-76
2023/07/18 06:57:15;;;;;;;11.55;9.27;;;;;;;29.11;42.26;99346.88;5032779;28;20408;-75
2023/07/18 06:59:42;;;;;;;13.35;9.55;;;;;;;29.43;41.89;99347.78;5033307;28;20488;-76
2023/07/18 07:02:10;;;;;;;12.93;9.10;;;;;;;29.34;41.66;99347.69;5031880;28;20459;-76
2023/07/18 07:04:36;;;;;;;12.27;9.80;;;;;;;29.58;41.03;99327.88;5037010;28;20439;-75
2023/07/18 07:07:06;;;;;;;10.77;9.10;;;;;;;29.82;40.86;99345.47;5042685;28;20036;-76
2023/07/18 07:09:33;;;;;;;14.55;9.30;;;;;;;29.76;40.56;99344.47;5033290;28;20116;-76
2023/07/18 07:11:59;;;;;;;10.18;9.02;;;;;;;29.81;40.39;99337.28;5034467;28;20056;-78
2023/07/18 07:14:25;;;;;;;13.48;9.52;;;;;;;29.81;40.59;99341.00;5038706;28;20495;-79
2023/07/18 07:16:50;;;;;;;29.65;9.45;;;;;;;30.02;41.25;99347.16;5036406;28;20033;-80
2023/07/18 07:19:16;;;;;;;11.57;8.82;;;;;;;30.10;40.67;99342.75;5036021;28;20424;-82
2023/07/18 07:21:42;;;;;;;13.68;8.68;;;;;;;30.58;40.09;99349.47;5031450;28;20449;-79
2023/07/18 07:24:08;;;;;;;12.88;9.13;;;;;;;30.82;38.76;99344.72;5032839;28;20053;-79
2023/07/18 07:26:37;;;;;;;21.95;10.25;;;;;;;31.02;38.38;99340.59;5032526;28;20439;-79
2023/07/18 07:29:03;;;;;;;14.00;8.98;;;;;;;31.26;38.23;99327.63;5032695;28;20033;-78
2023/07/18 07:31:28;;;;;;;16.58;9.90;;;;;;;31.27;38.54;99330.03;5031851;28;20041;-80
2023/07/18 07:33:54;;;;;;;14.93;9.27;;;;;;;31.68;37.57;99329.81;5031290;28;20036;-80
2023/07/18 07:36:20;;;;;;;14.68;10.82;;;;;;;31.82;37.58;99322.56;5032533;28;20100;-80
2023/07/18 07:38:46;;;;;;;28.98;14.18;;;;;;;32.03;37.21;99326.50;5032348;28;20025;-80
2023/07/18 07:41:12;;;;;;;18.48;10.52;;;;;;;32.06;36.89;99324.75;5031215;28;20032;-80
2023/07/18 07:43:37;;;;;;;18.17;11.25;;;;;;;32.15;36.74;99321.00;5031250;28;20033;-80
2023/07/18 07:46:03;;;;;;;12.57;9.35;;;;;;;32.20;36.64;99321.13;5033426;28;20045;-79
2023/07/18 07:48:29;;;;;;;19.48;10.32;;;;;;;31.99;36.10;99311.44;5052180;28;20036;-80
2023/07/18 07:50:55;;;;;;;13.32;9.30;;;;;;;32.13;36.20;99295.44;5041884;28;20043;-78
2023/07/18 07:53:21;;;;;;;13.70;10.52;;;;;;;31.80;36.59;99307.81;5032216;28;20114;-77
2023/07/18 07:55:46;;;;;;;12.98;9.13;;;;;;;31.88;36.53;99314.84;5030867;28;20029;-77
2023/07/18 07:58:12;;;;;;;12.10;8.35;;;;;;;31.90;36.63;99306.47;5046666;28;20039;-78
2023/07/18 08:00:37;;;;;;;11.48;10.07;;;;;;;32.37;36.63;99319.97;5052029;28;20032;-78
2023/07/18 08:03:03;;;;;;;13.05;10.10;;;;;;;32.34;36.28;99308.06;5051852;28;20042;-78
2023/07/18 08:05:29;;;;;;;11.60;9.00;;;;;;;32.17;35.91;99312.63;5051902;28;20434;-78
2023/07/18 08:07:54;;;;;;;13.18;9.52;;;;;;;32.59;35.80;99308.09;5049543;28;20039;-78
2023/07/18 08:10:20;;;;;;;18.38;9.38;;;;;;;32.95;35.33;99311.25;5040168;28;20424;-77
2023/07/18 08:12:45;;;;;;;24.00;9.82;;;;;;;32.96;34.92;99301.25;5049719;28;20064;-79
2023/07/18 08:15:11;;;;;;;23.80;12.50;;;;;;;33.30;34.77;99291.13;5050668;28;20511;-78
2023/07/18 08:17:36;;;;;;;14.05;11.40;;;;;;;33.56;34.52;99302.16;5050356;28;20021;-78
2023/07/18 08:20:08;;;;;;;12.18;9.50;;;;;;;33.71;34.41;99296.34;5031550;28;20037;-78
2023/07/18 08:22:33;;;;;;;20.10;8.60;;;;;;;33.83;33.73;99300.22;5031682;28;20025;-78
2023/07/18 08:24:59;;;;;;;12.90;8.90;;;;;;;33.97;33.78;99301.53;5030470;28;20064;-81
2023/07/18 08:27:24;;;;;;;21.42;10.35;;;;;;;34.02;34.37;99297.16;5031120;28;20455;-80
2023/07/18 08:29:50;;;;;;;10.38;8.50;;;;;;;33.85;34.58;99293.94;5031736;28;20095;-81
2023/07/18 08:32:15;;;;;;;15.80;10.45;;;;;;;33.42;35.46;99297.13;5030170;28;20535;-79
2023/07/18 08:34:41;;;;;;;21.40;11.00;;;;;;;33.19;36.20;99288.81;5030410;28;20511;-78
2023/07/18 08:37:09;;;;;;;15.25;11.13;;;;;;;33.41;36.30;99290.50;5031104;28;20171;-77
2023/07/18 08:39:35;;;;;;;11.50;10.30;;;;;;;34.00;35.10;99283.13;5031528;28;20021;-79
2023/07/18 08:42:05;;;;;;;15.25;10.95;;;;;;;34.27;34.86;99283.28;5031463;28;20458;-79
2023/07/18 08:44:31;;;;;;;17.40;13.15;;;;;;;33.87;36.09;99288.44;5036256;28;20057;-79
2023/07/18 08:47:00;;;;;;;22.48;13.98;;;;;;;34.14;35.57;99287.31;5051325;28;20021;-79
2023/07/18 08:49:28;;;;;;;18.10;13.13;;;;;;;34.40;34.61;99274.22;5051214;28;20036;-77
2023/07/18 08:51:54;;;;;;;20.00;12.25;;;;;;;34.40;35.22;99274.22;5035300;28;20472;-77
2023/07/18 08:54:19;;;;;;;16.40;11.98;;;;;;;34.85;34.67;99279.84;5031145;28;20033;-77
2023/07/18 08:56:45;;;;;;;17.67;12.98;;;;;;;35.23;35.14;99274.19;5031214;28;20032;-78
2023/07/18 08:59:12;;;;;;;121.53;21.83;;;;;;;35.59;34.70;99269.03;5051304;28;20049;-80
2023/07/18 09:01:51;;;;;;;22.67;15.30;;;;;;;35.79;34.00;99273.97;5051377;28;20029;-82
2023/07/18 09:04:18;;;;;;;18.73;15.18;;;;;;;36.00;33.80;99268.03;5051567;28;20381;-79
2023/07/18 09:06:57;;;;;;;16.73;13.25;;;;;;;35.83;32.63;99256.25;5052550;28;20039;-80
2023/07/18 09:09:24;;;;;;;15.23;12.32;;;;;;;35.61;33.72;99254.78;5051167;28;20029;-81
2023/07/18 09:12:09;;;;;;;20.38;12.25;;;;;;;35.84;33.47;99254.97;5051045;28;20466;-79
2023/07/18 09:14:35;;;;;;;15.13;11.73;;;;;;;35.51;33.57;99256.25;5031092;28;20041;-75
2023/07/18 09:17:04;;;;;;;17.55;11.82;;;;;;;35.97;34.54;99258.25;5027063;28;20056;-75
2023/07/18 09:19:40;;;;;;;12.25;10.55;;;;;;;36.31;32.95;99248.13;5048000;28;20060;-76
2023/07/18 09:22:10;;;;;;;13.07;10.85;;;;;;;36.33;31.82;99242.63;5034154;28;20037;-77
2023/07/18 09:24:37;;;;;;;12.57;11.27;;;;;;;36.24;32.05;99235.69;5052528;28;20411;-76
2023/07/18 09:27:04;;;;;;;17.73;12.57;;;;;;;35.94;32.67;99238.91;5037317;28;20040;-77
2023/07/18 09:29:30;;;;;;;16.27;11.70;;;;;;;35.89;33.18;99233.03;5031974;28;20107;-76
2023/07/18 09:31:55;;;;;;;11.88;10.80;;;;;;;36.22;33.44;99229.59;5032805;28;20159;-72
2023/07/18 09:34:21;;;;;;;13.20;11.65;;;;;;;35.80;32.82;99228.22;5032759;28;20120;-77
2023/07/18 09:37:01;;;;;;;11.65;10.23;;;;;;;35.87;32.91;99213.22;5031512;28;20022;-76
2023/07/18 09:39:27;;;;;;;16.20;11.18;;;;;;;36.17;32.33;99215.78;5032717;28;20064;-75
2023/07/18 09:41:53;;;;;;;14.27;10.90;;;;;;;36.53;32.11;99218.34;5040900;28;20548;-76
2023/07/18 09:44:20;;;;;;;13.27;11.88;;;;;;;36.80;32.24;99205.22;5031963;28;20037;-78
2023/07/18 09:46:45;;;;;;;13.95;11.60;;;;;;;36.55;32.16;99207.00;5046936;28;20068;-78
2023/07/18 09:49:11;;;;;;;17.48;11.35;;;;;;;35.89;33.07;99196.03;5049392;28;20459;-78
2023/07/18 09:51:40;;;;;;;16.48;12.38;;;;;;;35.33;34.14;99202.19;5048825;28;20500;-77
2023/07/18 09:54:07;;;;;;;12.65;11.45;;;;;;;35.07;33.45;99203.00;5051923;28;20127;-77
2023/07/18 09:56:39;;;;;;;11.95;10.77;;;;;;;35.07;32.90;99205.91;5048957;28;20071;-77
2023/07/18 09:59:07;;;;;;;11.55;10.45;;;;;;;35.49;31.34;99203.66;5043091;28;20041;-78
2023/07/18 10:01:33;;;;;;;14.10;10.45;;;;;;;35.65;30.65;99188.47;5033016;28;20044;-77
2023/07/18 10:03:59;;;;;;;15.10;10.02;;;;;;;36.45;30.74;99200.59;5042174;28;20041;-79
2023/07/18 10:06:26;;;;;;;14.30;9.77;;;;;;;36.70;29.83;99192.25;5049123;28;20043;-80
2023/07/18 10:08:53;;;;;;;11.80;9.00;;;;;;;37.36;30.00;99186.25;5030341;28;20064;-79
2023/07/18 10:11:19;;;;;;;11.80;9.52;;;;;;;37.37;28.71;99173.28;5045963;28;20116;-80
2023/07/18 10:14:06;;;;;;;16.77;9.93;;;;;;;37.90;29.54;99169.81;5042143;28;20116;-81
2023/07/18 10:16:34;;;;;;;16.23;10.35;;;;;;;38.23;28.16;99169.44;5033679;28;20111;-80
2023/07/18 10:19:18;;;;;;;21.90;10.45;;;;;;;37.73;27.87;99166.91;5046656;28;20057;-80
2023/07/18 10:21:49;;;;;;;12.07;10.55;;;;;;;37.62;27.33;99169.84;5039778;28;20139;-80
2023/07/18 10:24:20;;;;;;;12.93;11.65;;;;;;;37.88;27.14;99174.56;5031297;28;20036;-78
2023/07/18 10:26:55;;;;;;;12.55;11.02;;;;;;;38.05;26.99;99168.72;5039310;28;20487;-80
2023/07/18 10:29:21;;;;;;;14.95;11.95;;;;;;;38.14;27.62;99168.44;5047805;28;20489;-80
2023/07/18 10:31:46;;;;;;;17.20;12.85;;;;;;;38.65;28.34;99163.69;5046385;28;20053;-80
2023/07/18 10:34:16;;;;;;;13.60;12.18;;;;;;;38.18;27.20;99166.03;5033679;28;20480;-80
2023/07/18 10:36:58;;;;;;;16.38;11.68;;;;;;;38.89;26.90;99160.09;5032359;28;20032;-80
2023/07/18 10:39:40;;;;;;;15.90;13.20;;;;;;;38.38;25.55;99164.09;5033738;28;20033;-80
2023/07/18 10:42:19;;;;;;;13.95;11.23;;;;;;;38.65;26.35;99158.66;5033608;28;20021;-80
2023/07/18 10:44:46;;;;;;;15.65;11.23;;;;;;;38.36;24.70;99163.03;5032783;28;20041;-80
2023/07/18 10:47:17;;;;;;;13.02;11.68;;;;;;;38.07;25.37;99145.63;5032229;28;20073;-80
2023/07/18 10:49:44;;;;;;;12.93;11.60;;;;;;;38.83;26.17;99151.38;5032884;28;20071;-80
2023/07/18 10:52:11;;;;;;;13.38;10.85;;;;;;;38.42;25.65;99147.06;5042386;28;20067;-79
2023/07/18 10:54:37;;;;;;;14.10;10.40;;;;;;;38.29;25.61;99146.88;5051156;28;20025;-79
2023/07/18 10:57:03;;;;;;;11.40;10.40;;;;;;;38.51;26.07;99156.88;5032260;28;20029;-79
2023/07/18 10:59:29;;;;;;;13.18;10.25;;;;;;;38.50;26.06;99144.41;5033173;28;20510;-79
2023/07/18 11:02:00;;;;;;;14.55;12.63;;;;;;;38.34;25.18;99146.84;5032333;28;20128;-79
2023/07/18 11:04:26;;;;;;;14.20;12.68;;;;;;;38.24;26.16;99136.81;5033015;28;20116;-79
2023/07/18 11:06:57;;;;;;;13.77;11.85;;;;;;;38.69;25.79;99147.47;5033102;28;20381;-80
2023/07/18 11:09:23;;;;;;;12.60;11.38;;;;;;;39.04;25.56;99134.25;5031731;28;20405;-80
2023/07/18 11:11:49;;;;;;;14.68;10.63;;;;;;;38.56;24.64;99133.50;5031421;28;20111;-80
2023/07/18 11:14:15;;;;;;;13.00;11.68;;;;;;;38.88;25.85;99130.09;5051218;28;20029;-80
2023/07/18 11:16:42;;;;;;;13.50;10.90;;;;;;;39.07;26.01;99125.72;5051531;28;20035;-79
2023/07/18 11:19:07;;;;;;;37.13;11.52;;;;;;;38.94;25.31;99133.00;5039446;28;20026;-79
2023/07/18 11:21:35;;;;;;;18.70;10.15;;;;;;;38.40;25.19;99138.06;5031425;28;20044;-79